sensor_id;sensor_type;location;lat;lon;timestamp;temperature;humidity
18454;DHT22;9356;52.202;20.950;2022-07-03T00:00:22;21.00;93.30
18454;DHT22;9356;52.202;20.950;2022-07-03T00:01:26;20.90;93.20
18454;DHT22;9356;52.202;20.950;2022-07-03T00:02:28;20.90;93.50
18454;DHT22;9356;52.202;20.950;2022-07-03T00:03:32;20.90;93.50
18454;DHT22;9356;52.202;20.950;2022-07-03T00:04:36;20.90;93.80
18454;DHT22;9356;52.202;20.950;2022-07-03T00:05:39;22.00;93.70
18454;DHT22;9356;52.202;20.950;2022-07-03T00:06:41;20.90;93.50
18454;DHT22;9356;52.202;20.950;2022-07-03T00:07:45;20.90;93.40
18454;DHT22;9356;52.202;20.950;2022-07-03T00:08:49;20.90;93.60
18454;DHT22;9356;52.202;20.950;2022-07-03T00:09:51;20.90;93.70
18454;DHT22;9356;52.202;20.950;2022-07-03T00:10:54;20.30;93.60
18454;DHT22;9356;52.202;20.950;2022-07-03T00:11:57;20.80;93.90
18454;DHT22;9356;52.202;20.950;2022-07-03T00:13:00;20.80;93.90
18454;DHT22;9356;52.202;20.950;2022-07-03T00:14:03;20.80;94.10
18454;DHT22;9356;52.202;20.950;2022-07-03T00:15:08;20.80;94.20
18454;DHT22;9356;52.202;20.950;2022-07-03T00:16:10;20.80;94.30
18454;DHT22;9356;52.202;20.950;2022-07-03T00:17:14;20.80;94.40
18454;DHT22;9356;52.202;20.950;2022-07-03T00:18:16;20.70;94.70
18454;DHT22;9356;52.202;20.950;2022-07-03T00:19:20;20.70;94.60
18454;DHT22;9356;52.202;20.950;2022-07-03T00:20:30;20.80;94.70
18454;DHT22;9356;52.202;20.950;2022-07-03T00:21:45;20.70;94.70
18454;DHT22;9356;52.202;20.950;2022-07-03T00:22:50;20.60;94.80
18454;DHT22;9356;52.202;20.950;2022-07-03T00:23:57;20.70;94.90
18454;DHT22;9356;52.202;20.950;2022-07-03T00:25:04;20.60;94.90
18454;DHT22;9356;52.202;20.950;2022-07-03T00:26:08;20.60;95.10
18454;DHT22;9356;52.202;20.950;2022-07-03T00:27:14;20.60;95.20
18454;DHT22;9356;52.202;20.950;2022-07-03T00:28:19;20.50;95.30
18454;DHT22;9356;52.202;20.950;2022-07-03T00:29:23;20.50;95.40
18454;DHT22;9356;52.202;20.950;2022-07-03T00:30:28;20.40;95.60
18454;DHT22;9356;52.202;20.950;2022-07-03T00:31:32;20.50;95.60
18454;DHT22;9356;52.202;20.950;2022-07-03T00:32:39;20.50;95.80
18454;DHT22;9356;52.202;20.950;2022-07-03T00:33:45;20.50;96.10
18454;DHT22;9356;52.202;20.950;2022-07-03T00:34:51;20.50;95.90
18454;DHT22;9356;52.202;20.950;2022-07-03T00:35:55;20.50;96.00
18454;DHT22;9356;52.202;20.950;2022-07-03T00:37:00;20.40;96.00
18454;DHT22;9356;52.202;20.950;2022-07-03T00:38:11;20.40;96.10
18454;DHT22;9356;52.202;20.950;2022-07-03T00:39:14;20.40;96.10
18454;DHT22;9356;52.202;20.950;2022-07-03T00:40:17;20.40;96.00
18454;DHT22;9356;52.202;20.950;2022-07-03T00:41:25;20.40;96.00
18454;DHT22;9356;52.202;20.950;2022-07-03T00:42:30;20.50;96.20
18454;DHT22;9356;52.202;20.950;2022-07-03T00:43:34;20.50;96.20
18454;DHT22;9356;52.202;20.950;2022-07-03T00:44:44;20.40;96.20
18454;DHT22;9356;52.202;20.950;2022-07-03T00:45:49;20.40;96.20
18454;DHT22;9356;52.202;20.950;2022-07-03T00:46:54;20.40;96.20
18454;DHT22;9356;52.202;20.950;2022-07-03T00:47:58;20.40;96.30
18454;DHT22;9356;52.202;20.950;2022-07-03T00:49:04;20.40;96.30
18454;DHT22;9356;52.202;20.950;2022-07-03T00:50:10;20.40;96.30
18454;DHT22;9356;52.202;20.950;2022-07-03T00:51:15;20.40;96.30
18454;DHT22;9356;52.202;20.950;2022-07-03T00:52:22;20.40;96.40
18454;DHT22;9356;52.202;20.950;2022-07-03T00:53:28;20.40;96.40
18454;DHT22;9356;52.202;20.950;2022-07-03T00:54:34;20.40;96.40
18454;DHT22;9356;52.202;20.950;2022-07-03T00:55:37;20.40;96.50
18454;DHT22;9356;52.202;20.950;2022-07-03T00:56:50;20.40;96.50
18454;DHT22;9356;52.202;20.950;2022-07-03T00:57:55;20.60;96.70
18454;DHT22;9356;52.202;20.950;2022-07-03T00:59:01;20.30;96.60
18454;DHT22;9356;52.202;20.950;2022-07-03T01:00:04;20.40;96.70
18454;DHT22;9356;52.202;20.950;2022-07-03T01:01:11;20.40;96.60
18454;DHT22;9356;52.202;20.950;2022-07-03T01:02:27;20.30;96.90
18454;DHT22;9356;52.202;20.950;2022-07-03T01:03:40;20.30;96.60
18454;DHT22;9356;52.202;20.950;2022-07-03T01:04:52;20.40;96.70
18454;DHT22;9356;52.202;20.950;2022-07-03T01:05:56;20.40;96.70
18454;DHT22;9356;52.202;20.950;2022-07-03T01:07:07;20.30;96.70
18454;DHT22;9356;52.202;20.950;2022-07-03T01:08:21;21.60;97.10
18454;DHT22;9356;52.202;20.950;2022-07-03T01:09:37;20.30;96.70
18454;DHT22;9356;52.202;20.950;2022-07-03T01:10:55;20.40;96.80
18454;DHT22;9356;52.202;20.950;2022-07-03T01:12:06;20.40;96.80
18454;DHT22;9356;52.202;20.950;2022-07-03T01:13:14;20.40;96.80
18454;DHT22;9356;52.202;20.950;2022-07-03T01:14:32;20.40;96.60
18454;DHT22;9356;52.202;20.950;2022-07-03T01:15:49;20.40;96.70
18454;DHT22;9356;52.202;20.950;2022-07-03T01:16:58;20.50;96.70
18454;DHT22;9356;52.202;20.950;2022-07-03T01:18:17;20.50;96.50
18454;DHT22;9356;52.202;20.950;2022-07-03T01:19:37;20.50;96.40
18454;DHT22;9356;52.202;20.950;2022-07-03T01:20:44;20.40;96.40
18454;DHT22;9356;52.202;20.950;2022-07-03T01:21:56;20.50;96.60
18454;DHT22;9356;52.202;20.950;2022-07-03T01:23:20;20.50;96.80
18454;DHT22;9356;52.202;20.950;2022-07-03T01:24:42;20.60;96.50
18454;DHT22;9356;52.202;20.950;2022-07-03T01:25:49;17.90;95.60
18454;DHT22;9356;52.202;20.950;2022-07-03T01:26:58;20.70;96.40
18454;DHT22;9356;52.202;20.950;2022-07-03T01:28:13;20.60;96.40
18454;DHT22;9356;52.202;20.950;2022-07-03T01:29:22;20.70;96.20
18454;DHT22;9356;52.202;20.950;2022-07-03T01:30:31;20.60;96.20
18454;DHT22;9356;52.202;20.950;2022-07-03T01:31:38;20.60;96.20
18454;DHT22;9356;52.202;20.950;2022-07-03T01:32:45;20.60;96.40
18454;DHT22;9356;52.202;20.950;2022-07-03T01:33:51;20.60;96.60
18454;DHT22;9356;52.202;20.950;2022-07-03T01:34:57;20.70;96.30
18454;DHT22;9356;52.202;20.950;2022-07-03T01:36:05;20.70;96.10
18454;DHT22;9356;52.202;20.950;2022-07-03T01:37:10;20.70;96.30
18454;DHT22;9356;52.202;20.950;2022-07-03T01:38:18;20.70;96.00
18454;DHT22;9356;52.202;20.950;2022-07-03T01:39:26;20.70;96.00
18454;DHT22;9356;52.202;20.950;2022-07-03T01:40:51;20.70;96.00
18454;DHT22;9356;52.202;20.950;2022-07-03T01:41:59;20.70;96.00
18454;DHT22;9356;52.202;20.950;2022-07-03T01:43:04;20.60;96.00
18454;DHT22;9356;52.202;20.950;2022-07-03T01:44:12;20.70;96.10
18454;DHT22;9356;52.202;20.950;2022-07-03T01:45:18;20.60;96.10
18454;DHT22;9356;52.202;20.950;2022-07-03T01:46:28;20.60;96.10
18454;DHT22;9356;52.202;20.950;2022-07-03T01:47:34;20.60;96.20
18454;DHT22;9356;52.202;20.950;2022-07-03T01:48:41;20.50;96.20
18454;DHT22;9356;52.202;20.950;2022-07-03T01:49:48;20.50;96.30
18454;DHT22;9356;52.202;20.950;2022-07-03T01:50:51;20.50;96.50
18454;DHT22;9356;52.202;20.950;2022-07-03T01:51:56;23.70;97.40
18454;DHT22;9356;52.202;20.950;2022-07-03T01:53:01;20.40;96.50
18454;DHT22;9356;52.202;20.950;2022-07-03T01:54:07;20.40;96.50
18454;DHT22;9356;52.202;20.950;2022-07-03T01:55:12;20.30;96.60
18454;DHT22;9356;52.202;20.950;2022-07-03T01:56:20;20.30;96.70
18454;DHT22;9356;52.202;20.950;2022-07-03T01:57:23;20.30;96.70
18454;DHT22;9356;52.202;20.950;2022-07-03T01:58:30;20.30;96.80
18454;DHT22;9356;52.202;20.950;2022-07-03T01:59:33;20.20;96.90
18454;DHT22;9356;52.202;20.950;2022-07-03T02:00:46;20.20;97.10
18454;DHT22;9356;52.202;20.950;2022-07-03T02:01:52;20.20;96.90
18454;DHT22;9356;52.202;20.950;2022-07-03T02:03:02;20.20;96.90
18454;DHT22;9356;52.202;20.950;2022-07-03T02:04:16;20.20;97.00
18454;DHT22;9356;52.202;20.950;2022-07-03T02:05:30;20.20;96.80
18454;DHT22;9356;52.202;20.950;2022-07-03T02:06:40;20.10;96.80
18454;DHT22;9356;52.202;20.950;2022-07-03T02:07:52;20.30;96.90
18454;DHT22;9356;52.202;20.950;2022-07-03T02:09:04;20.20;96.50
18454;DHT22;9356;52.202;20.950;2022-07-03T02:10:30;20.20;96.70
18454;DHT22;9356;52.202;20.950;2022-07-03T02:11:40;20.10;96.60
18454;DHT22;9356;52.202;20.950;2022-07-03T02:12:48;20.20;96.60
18454;DHT22;9356;52.202;20.950;2022-07-03T02:14:05;20.10;96.40
18454;DHT22;9356;52.202;20.950;2022-07-03T02:15:18;20.10;96.00
18454;DHT22;9356;52.202;20.950;2022-07-03T02:16:24;20.20;96.00
18454;DHT22;9356;52.202;20.950;2022-07-03T02:17:36;20.10;96.00
18454;DHT22;9356;52.202;20.950;2022-07-03T02:18:55;19.40;95.70
18454;DHT22;9356;52.202;20.950;2022-07-03T02:20:02;20.20;95.80
18454;DHT22;9356;52.202;20.950;2022-07-03T02:21:14;20.20;95.90
18454;DHT22;9356;52.202;20.950;2022-07-03T02:22:21;20.50;95.70
18454;DHT22;9356;52.202;20.950;2022-07-03T02:23:31;20.10;95.30
18454;DHT22;9356;52.202;20.950;2022-07-03T02:24:42;20.20;95.20
18454;DHT22;9356;52.202;20.950;2022-07-03T02:25:51;20.00;95.10
18454;DHT22;9356;52.202;20.950;2022-07-03T02:27:03;20.10;96.00
18454;DHT22;9356;52.202;20.950;2022-07-03T02:28:18;20.10;94.90
18454;DHT22;9356;52.202;20.950;2022-07-03T02:29:31;20.10;94.40
18454;DHT22;9356;52.202;20.950;2022-07-03T02:33:21;20.10;94.90
18454;DHT22;9356;52.202;20.950;2022-07-03T02:34:31;20.00;94.30
18454;DHT22;9356;52.202;20.950;2022-07-03T02:35:34;19.90;93.90
18454;DHT22;9356;52.202;20.950;2022-07-03T02:36:43;20.20;94.80
18454;DHT22;9356;52.202;20.950;2022-07-03T02:37:53;20.00;95.20
18454;DHT22;9356;52.202;20.950;2022-07-03T02:38:59;20.00;93.90
18454;DHT22;9356;52.202;20.950;2022-07-03T02:40:06;20.00;94.30
18454;DHT22;9356;52.202;20.950;2022-07-03T02:41:15;20.00;94.00
18454;DHT22;9356;52.202;20.950;2022-07-03T02:42:37;20.10;93.80
18454;DHT22;9356;52.202;20.950;2022-07-03T02:43:49;20.10;93.50
18454;DHT22;9356;52.202;20.950;2022-07-03T02:44:59;20.10;94.10
18454;DHT22;9356;52.202;20.950;2022-07-03T02:46:07;20.10;94.00
18454;DHT22;9356;52.202;20.950;2022-07-03T02:47:35;20.20;93.70
18454;DHT22;9356;52.202;20.950;2022-07-03T02:48:45;20.40;93.20
18454;DHT22;9356;52.202;20.950;2022-07-03T02:50:02;20.20;92.90
18454;DHT22;9356;52.202;20.950;2022-07-03T02:51:13;20.10;93.70
18454;DHT22;9356;52.202;20.950;2022-07-03T02:52:43;20.20;93.30
18454;DHT22;9356;52.202;20.950;2022-07-03T02:54:02;20.30;93.60
18454;DHT22;9356;52.202;20.950;2022-07-03T02:55:10;20.40;93.50
18454;DHT22;9356;52.202;20.950;2022-07-03T02:56:33;20.60;92.90
18454;DHT22;9356;52.202;20.950;2022-07-03T02:57:40;20.80;92.40
18454;DHT22;9356;52.202;20.950;2022-07-03T02:58:58;21.10;92.00
18454;DHT22;9356;52.202;20.950;2022-07-03T03:00:05;21.40;91.40
18454;DHT22;9356;52.202;20.950;2022-07-03T03:01:16;21.70;90.90
18454;DHT22;9356;52.202;20.950;2022-07-03T03:02:36;22.00;90.40
18454;DHT22;9356;52.202;20.950;2022-07-03T03:03:49;22.40;89.30
18454;DHT22;9356;52.202;20.950;2022-07-03T03:04:58;22.70;87.90
18454;DHT22;9356;52.202;20.950;2022-07-03T03:06:13;23.00;86.50
18454;DHT22;9356;52.202;20.950;2022-07-03T03:07:29;23.20;85.50
18454;DHT22;9356;52.202;20.950;2022-07-03T03:08:42;23.60;84.00
18454;DHT22;9356;52.202;20.950;2022-07-03T03:09:48;24.00;82.70
18454;DHT22;9356;52.202;20.950;2022-07-03T03:10:51;24.40;81.50
18454;DHT22;9356;52.202;20.950;2022-07-03T03:12:01;24.60;79.70
18454;DHT22;9356;52.202;20.950;2022-07-03T03:13:07;24.80;78.70
18454;DHT22;9356;52.202;20.950;2022-07-03T03:14:14;24.90;77.80
18454;DHT22;9356;52.202;20.950;2022-07-03T03:15:20;25.30;77.50
18454;DHT22;9356;52.202;20.950;2022-07-03T03:16:27;25.10;76.00
18454;DHT22;9356;52.202;20.950;2022-07-03T03:17:42;25.10;76.10
18454;DHT22;9356;52.202;20.950;2022-07-03T03:18:45;25.20;76.20
18454;DHT22;9356;52.202;20.950;2022-07-03T03:19:55;25.30;75.50
18454;DHT22;9356;52.202;20.950;2022-07-03T03:20:59;25.40;75.00
18454;DHT22;9356;52.202;20.950;2022-07-03T03:22:13;25.40;74.70
18454;DHT22;9356;52.202;20.950;2022-07-03T03:23:26;25.40;74.70
18454;DHT22;9356;52.202;20.950;2022-07-03T03:24:34;25.40;74.30
18454;DHT22;9356;52.202;20.950;2022-07-03T03:25:37;25.40;74.40
18454;DHT22;9356;52.202;20.950;2022-07-03T03:26:41;25.40;74.10
18454;DHT22;9356;52.202;20.950;2022-07-03T03:27:45;25.40;73.70
18454;DHT22;9356;52.202;20.950;2022-07-03T03:28:49;25.40;73.50
18454;DHT22;9356;52.202;20.950;2022-07-03T03:29:54;25.40;73.30
18454;DHT22;9356;52.202;20.950;2022-07-03T03:30:57;25.40;72.30
18454;DHT22;9356;52.202;20.950;2022-07-03T03:32:00;25.40;71.80
18454;DHT22;9356;52.202;20.950;2022-07-03T03:33:06;25.40;72.10
18454;DHT22;9356;52.202;20.950;2022-07-03T03:34:12;25.40;72.20
18454;DHT22;9356;52.202;20.950;2022-07-03T03:35:16;25.30;72.30
18454;DHT22;9356;52.202;20.950;2022-07-03T03:36:21;25.30;72.30
18454;DHT22;9356;52.202;20.950;2022-07-03T03:37:24;25.30;71.70
18454;DHT22;9356;52.202;20.950;2022-07-03T03:38:27;25.40;71.60
18454;DHT22;9356;52.202;20.950;2022-07-03T03:39:32;25.40;71.90
18454;DHT22;9356;52.202;20.950;2022-07-03T03:40:35;25.50;71.10
18454;DHT22;9356;52.202;20.950;2022-07-03T03:41:38;25.40;70.60
18454;DHT22;9356;52.202;20.950;2022-07-03T03:42:40;25.50;71.00
18454;DHT22;9356;52.202;20.950;2022-07-03T03:43:45;25.50;71.20
18454;DHT22;9356;52.202;20.950;2022-07-03T03:44:49;25.50;71.10
18454;DHT22;9356;52.202;20.950;2022-07-03T03:45:52;25.60;70.40
18454;DHT22;9356;52.202;20.950;2022-07-03T03:46:55;27.80;72.20
18454;DHT22;9356;52.202;20.950;2022-07-03T03:47:59;25.50;69.80
18454;DHT22;9356;52.202;20.950;2022-07-03T03:49:01;25.40;69.60
18454;DHT22;9356;52.202;20.950;2022-07-03T03:50:05;25.40;69.20
18454;DHT22;9356;52.202;20.950;2022-07-03T03:51:08;25.40;69.30
18454;DHT22;9356;52.202;20.950;2022-07-03T03:52:12;25.20;70.00
18454;DHT22;9356;52.202;20.950;2022-07-03T03:53:15;25.20;69.70
18454;DHT22;9356;52.202;20.950;2022-07-03T03:54:21;25.20;70.50
18454;DHT22;9356;52.202;20.950;2022-07-03T03:55:23;25.30;70.70
18454;DHT22;9356;52.202;20.950;2022-07-03T03:56:27;25.40;70.20
18454;DHT22;9356;52.202;20.950;2022-07-03T03:57:30;25.40;70.10
18454;DHT22;9356;52.202;20.950;2022-07-03T03:58:35;25.40;68.90
18454;DHT22;9356;52.202;20.950;2022-07-03T03:59:37;25.60;68.40
18454;DHT22;9356;52.202;20.950;2022-07-03T04:00:43;25.40;67.80
18454;DHT22;9356;52.202;20.950;2022-07-03T04:01:45;25.40;68.70
18454;DHT22;9356;52.202;20.950;2022-07-03T04:02:49;25.40;68.70
18454;DHT22;9356;52.202;20.950;2022-07-03T04:03:52;25.40;69.10
18454;DHT22;9356;52.202;20.950;2022-07-03T04:04:57;25.50;68.40
18454;DHT22;9356;52.202;20.950;2022-07-03T04:06:01;25.50;68.60
18454;DHT22;9356;52.202;20.950;2022-07-03T04:07:05;25.60;69.00
18454;DHT22;9356;52.202;20.950;2022-07-03T04:08:07;25.70;68.60
18454;DHT22;9356;52.202;20.950;2022-07-03T04:09:10;25.80;68.10
18454;DHT22;9356;52.202;20.950;2022-07-03T04:10:13;25.90;67.40
18454;DHT22;9356;52.202;20.950;2022-07-03T04:11:17;25.90;67.70
18454;DHT22;9356;52.202;20.950;2022-07-03T04:12:19;23.40;65.40
18454;DHT22;9356;52.202;20.950;2022-07-03T04:13:23;26.00;67.50
18454;DHT22;9356;52.202;20.950;2022-07-03T04:14:26;26.10;67.70
18454;DHT22;9356;52.202;20.950;2022-07-03T04:15:30;26.20;66.90
18454;DHT22;9356;52.202;20.950;2022-07-03T04:16:34;26.30;66.70
18454;DHT22;9356;52.202;20.950;2022-07-03T04:17:38;26.40;66.60
18454;DHT22;9356;52.202;20.950;2022-07-03T04:18:40;26.40;66.50
18454;DHT22;9356;52.202;20.950;2022-07-03T04:19:44;26.50;65.70
18454;DHT22;9356;52.202;20.950;2022-07-03T04:20:48;26.60;65.70
18454;DHT22;9356;52.202;20.950;2022-07-03T04:21:51;26.60;65.50
18454;DHT22;9356;52.202;20.950;2022-07-03T04:22:53;26.60;65.60
18454;DHT22;9356;52.202;20.950;2022-07-03T04:23:57;26.70;64.70
18454;DHT22;9356;52.202;20.950;2022-07-03T04:24:59;26.70;64.10
18454;DHT22;9356;52.202;20.950;2022-07-03T04:26:03;26.70;64.10
18454;DHT22;9356;52.202;20.950;2022-07-03T04:27:06;26.80;64.30
18454;DHT22;9356;52.202;20.950;2022-07-03T04:28:10;26.80;63.60
18454;DHT22;9356;52.202;20.950;2022-07-03T04:29:21;26.80;63.40
18454;DHT22;9356;52.202;20.950;2022-07-03T04:30:25;26.80;63.50
18454;DHT22;9356;52.202;20.950;2022-07-03T04:31:28;26.80;63.20
18454;DHT22;9356;52.202;20.950;2022-07-03T04:32:32;26.80;63.10
18454;DHT22;9356;52.202;20.950;2022-07-03T04:33:35;26.70;63.80
18454;DHT22;9356;52.202;20.950;2022-07-03T04:34:38;26.70;63.90
18454;DHT22;9356;52.202;20.950;2022-07-03T04:35:41;26.50;64.00
18454;DHT22;9356;52.202;20.950;2022-07-03T04:36:45;26.60;63.40
18454;DHT22;9356;52.202;20.950;2022-07-03T04:37:47;26.60;64.40
18454;DHT22;9356;52.202;20.950;2022-07-03T04:38:51;26.60;64.30
18454;DHT22;9356;52.202;20.950;2022-07-03T04:39:53;26.70;63.20
18454;DHT22;9356;52.202;20.950;2022-07-03T04:40:56;26.70;63.40
18454;DHT22;9356;52.202;20.950;2022-07-03T04:41:59;26.70;62.90
18454;DHT22;9356;52.202;20.950;2022-07-03T04:43:03;26.60;63.80
18454;DHT22;9356;52.202;20.950;2022-07-03T04:44:05;26.60;63.70
18454;DHT22;9356;52.202;20.950;2022-07-03T04:45:09;26.70;63.50
18454;DHT22;9356;52.202;20.950;2022-07-03T04:46:12;26.70;62.60
18454;DHT22;9356;52.202;20.950;2022-07-03T04:47:16;26.70;63.60
18454;DHT22;9356;52.202;20.950;2022-07-03T04:48:20;26.70;63.00
18454;DHT22;9356;52.202;20.950;2022-07-03T04:49:23;26.70;62.20
18454;DHT22;9356;52.202;20.950;2022-07-03T04:50:26;26.70;62.50
18454;DHT22;9356;52.202;20.950;2022-07-03T04:51:29;26.70;62.60
18454;DHT22;9356;52.202;20.950;2022-07-03T04:52:32;26.70;62.80
18454;DHT22;9356;52.202;20.950;2022-07-03T04:53:35;26.70;62.40
18454;DHT22;9356;52.202;20.950;2022-07-03T04:54:37;26.80;62.40
18454;DHT22;9356;52.202;20.950;2022-07-03T04:55:41;26.80;61.80
18454;DHT22;9356;52.202;20.950;2022-07-03T04:56:44;26.80;62.00
18454;DHT22;9356;52.202;20.950;2022-07-03T04:57:48;26.80;62.20
18454;DHT22;9356;52.202;20.950;2022-07-03T04:58:50;26.80;62.00
18454;DHT22;9356;52.202;20.950;2022-07-03T04:59:54;26.80;61.70
18454;DHT22;9356;52.202;20.950;2022-07-03T05:00:56;26.90;60.20
18454;DHT22;9356;52.202;20.950;2022-07-03T05:02:01;26.90;60.30
18454;DHT22;9356;52.202;20.950;2022-07-03T05:03:04;26.70;61.10
18454;DHT22;9356;52.202;20.950;2022-07-03T05:04:09;26.70;62.50
18454;DHT22;9356;52.202;20.950;2022-07-03T05:05:11;26.80;62.10
18454;DHT22;9356;52.202;20.950;2022-07-03T05:06:16;26.90;61.10
18454;DHT22;9356;52.202;20.950;2022-07-03T05:07:21;27.00;61.30
18454;DHT22;9356;52.202;20.950;2022-07-03T05:08:25;27.10;61.30
18454;DHT22;9356;52.202;20.950;2022-07-03T05:09:28;27.20;61.60
18454;DHT22;9356;52.202;20.950;2022-07-03T05:10:31;27.30;60.60
18454;DHT22;9356;52.202;20.950;2022-07-03T05:11:34;27.40;60.30
18454;DHT22;9356;52.202;20.950;2022-07-03T05:12:37;27.40;60.40
18454;DHT22;9356;52.202;20.950;2022-07-03T05:13:42;28.80;61.10
18454;DHT22;9356;52.202;20.950;2022-07-03T05:14:46;27.60;59.90
18454;DHT22;9356;52.202;20.950;2022-07-03T05:15:48;27.70;59.60
18454;DHT22;9356;52.202;20.950;2022-07-03T05:16:51;27.80;59.30
18454;DHT22;9356;52.202;20.950;2022-07-03T05:17:54;27.90;59.20
18454;DHT22;9356;52.202;20.950;2022-07-03T05:18:58;28.00;59.70
18454;DHT22;9356;52.202;20.950;2022-07-03T05:20:03;28.10;59.50
18454;DHT22;9356;52.202;20.950;2022-07-03T05:21:25;28.20;57.50
18454;DHT22;9356;52.202;20.950;2022-07-03T05:22:28;28.30;57.00
18454;DHT22;9356;52.202;20.950;2022-07-03T05:23:30;28.30;56.40
18454;DHT22;9356;52.202;20.950;2022-07-03T05:24:34;28.40;56.80
18454;DHT22;9356;52.202;20.950;2022-07-03T05:25:36;28.30;56.50
18454;DHT22;9356;52.202;20.950;2022-07-03T05:26:39;28.20;56.90
18454;DHT22;9356;52.202;20.950;2022-07-03T05:27:43;28.10;57.40
18454;DHT22;9356;52.202;20.950;2022-07-03T05:28:46;28.00;57.20
18454;DHT22;9356;52.202;20.950;2022-07-03T05:29:49;28.00;57.50
18454;DHT22;9356;52.202;20.950;2022-07-03T05:30:52;28.00;57.90
18454;DHT22;9356;52.202;20.950;2022-07-03T05:31:56;28.00;57.00
18454;DHT22;9356;52.202;20.950;2022-07-03T05:32:59;27.90;55.40
18454;DHT22;9356;52.202;20.950;2022-07-03T05:34:02;27.90;56.00
18454;DHT22;9356;52.202;20.950;2022-07-03T05:35:08;27.90;56.30
18454;DHT22;9356;52.202;20.950;2022-07-03T05:36:11;27.80;55.60
18454;DHT22;9356;52.202;20.950;2022-07-03T05:37:15;27.70;56.00
18454;DHT22;9356;52.202;20.950;2022-07-03T05:38:18;27.60;56.70
18454;DHT22;9356;52.202;20.950;2022-07-03T05:39:55;27.60;56.10
18454;DHT22;9356;52.202;20.950;2022-07-03T05:41:01;27.60;56.60
18454;DHT22;9356;52.202;20.950;2022-07-03T05:42:09;27.60;56.40
18454;DHT22;9356;52.202;20.950;2022-07-03T05:43:19;27.50;57.00
18454;DHT22;9356;52.202;20.950;2022-07-03T05:44:35;27.50;56.70
18454;DHT22;9356;52.202;20.950;2022-07-03T05:45:40;27.50;56.40
18454;DHT22;9356;52.202;20.950;2022-07-03T05:46:47;27.40;56.30
18454;DHT22;9356;52.202;20.950;2022-07-03T05:47:59;27.30;56.70
18454;DHT22;9356;52.202;20.950;2022-07-03T05:49:11;27.20;57.00
18454;DHT22;9356;52.202;20.950;2022-07-03T05:50:13;27.20;58.10
18454;DHT22;9356;52.202;20.950;2022-07-03T05:51:24;27.10;57.50
18454;DHT22;9356;52.202;20.950;2022-07-03T05:52:29;26.90;57.20
18454;DHT22;9356;52.202;20.950;2022-07-03T05:53:36;27.10;58.40
18454;DHT22;9356;52.202;20.950;2022-07-03T05:54:39;27.20;58.40
18454;DHT22;9356;52.202;20.950;2022-07-03T05:55:47;27.30;58.90
18454;DHT22;9356;52.202;20.950;2022-07-03T05:56:54;27.30;58.00
18454;DHT22;9356;52.202;20.950;2022-07-03T05:58:00;27.30;58.00
18454;DHT22;9356;52.202;20.950;2022-07-03T05:59:15;27.40;57.90
18454;DHT22;9356;52.202;20.950;2022-07-03T06:00:19;27.40;57.20
18454;DHT22;9356;52.202;20.950;2022-07-03T06:01:24;27.40;57.50
18454;DHT22;9356;52.202;20.950;2022-07-03T06:02:32;27.40;56.90
18454;DHT22;9356;52.202;20.950;2022-07-03T06:03:36;27.40;55.90
18454;DHT22;9356;52.202;20.950;2022-07-03T06:04:38;27.30;54.90
18454;DHT22;9356;52.202;20.950;2022-07-03T06:05:43;27.00;55.20
18454;DHT22;9356;52.202;20.950;2022-07-03T06:06:46;27.60;54.90
18454;DHT22;9356;52.202;20.950;2022-07-03T06:07:49;26.60;54.70
18454;DHT22;9356;52.202;20.950;2022-07-03T06:08:53;26.40;55.00
18454;DHT22;9356;52.202;20.950;2022-07-03T06:09:56;26.30;55.80
18454;DHT22;9356;52.202;20.950;2022-07-03T06:11:00;26.20;55.50
18454;DHT22;9356;52.202;20.950;2022-07-03T06:12:03;26.20;55.90
18454;DHT22;9356;52.202;20.950;2022-07-03T06:13:07;26.20;56.30
18454;DHT22;9356;52.202;20.950;2022-07-03T06:14:11;26.30;56.30
18454;DHT22;9356;52.202;20.950;2022-07-03T06:15:17;26.30;56.20
18454;DHT22;9356;52.202;20.950;2022-07-03T06:16:20;26.30;56.30
18454;DHT22;9356;52.202;20.950;2022-07-03T06:17:23;26.50;56.40
18454;DHT22;9356;52.202;20.950;2022-07-03T06:18:26;26.40;56.10
18454;DHT22;9356;52.202;20.950;2022-07-03T06:19:32;26.40;55.60
18454;DHT22;9356;52.202;20.950;2022-07-03T06:20:34;26.40;56.00
18454;DHT22;9356;52.202;20.950;2022-07-03T06:21:40;26.50;56.70
18454;DHT22;9356;52.202;20.950;2022-07-03T06:22:43;26.60;55.20
18454;DHT22;9356;52.202;20.950;2022-07-03T06:23:47;26.60;55.90
18454;DHT22;9356;52.202;20.950;2022-07-03T06:24:50;26.70;54.40
18454;DHT22;9356;52.202;20.950;2022-07-03T06:25:53;26.60;53.90
18454;DHT22;9356;52.202;20.950;2022-07-03T06:26:58;26.60;53.70
18454;DHT22;9356;52.202;20.950;2022-07-03T06:28:01;26.40;53.80
18454;DHT22;9356;52.202;20.950;2022-07-03T06:29:09;26.40;53.90
18454;DHT22;9356;52.202;20.950;2022-07-03T06:30:12;26.20;53.70
18454;DHT22;9356;52.202;20.950;2022-07-03T06:31:15;26.10;53.10
18454;DHT22;9356;52.202;20.950;2022-07-03T06:32:18;25.90;53.80
18454;DHT22;9356;52.202;20.950;2022-07-03T06:33:22;25.80;54.50
18454;DHT22;9356;52.202;20.950;2022-07-03T06:34:27;25.80;55.00
18454;DHT22;9356;52.202;20.950;2022-07-03T06:35:30;25.70;54.80
18454;DHT22;9356;52.202;20.950;2022-07-03T06:36:36;25.70;55.30
18454;DHT22;9356;52.202;20.950;2022-07-03T06:37:40;25.70;55.60
18454;DHT22;9356;52.202;20.950;2022-07-03T06:38:45;26.30;56.10
18454;DHT22;9356;52.202;20.950;2022-07-03T06:39:47;25.90;55.90
18454;DHT22;9356;52.202;20.950;2022-07-03T06:40:51;26.00;55.60
18454;DHT22;9356;52.202;20.950;2022-07-03T06:41:54;26.10;55.50
18454;DHT22;9356;52.202;20.950;2022-07-03T06:42:59;26.20;54.90
18454;DHT22;9356;52.202;20.950;2022-07-03T06:44:04;26.40;55.70
18454;DHT22;9356;52.202;20.950;2022-07-03T06:45:07;26.50;55.00
18454;DHT22;9356;52.202;20.950;2022-07-03T06:46:10;26.60;54.80
18454;DHT22;9356;52.202;20.950;2022-07-03T06:47:12;26.60;54.50
18454;DHT22;9356;52.202;20.950;2022-07-03T06:48:16;26.60;54.00
18454;DHT22;9356;52.202;20.950;2022-07-03T06:49:19;26.70;54.40
18454;DHT22;9356;52.202;20.950;2022-07-03T06:50:23;26.70;54.00
18454;DHT22;9356;52.202;20.950;2022-07-03T06:51:26;26.70;53.50
18454;DHT22;9356;52.202;20.950;2022-07-03T06:52:29;26.80;53.60
18454;DHT22;9356;52.202;20.950;2022-07-03T06:53:31;26.80;54.10
18454;DHT22;9356;52.202;20.950;2022-07-03T06:54:35;26.80;53.40
18454;DHT22;9356;52.202;20.950;2022-07-03T06:55:40;26.80;52.90
18454;DHT22;9356;52.202;20.950;2022-07-03T06:56:46;26.80;53.20
18454;DHT22;9356;52.202;20.950;2022-07-03T06:57:49;27.00;53.50
18454;DHT22;9356;52.202;20.950;2022-07-03T06:58:56;27.00;53.50
18454;DHT22;9356;52.202;20.950;2022-07-03T07:00:01;27.10;53.30
18454;DHT22;9356;52.202;20.950;2022-07-03T07:01:07;27.10;52.30
18454;DHT22;9356;52.202;20.950;2022-07-03T07:02:12;27.10;52.30